Time;durP1;ratioP1;P1;durP2;ratioP2;P2;SDS_P1;SDS_P2;PMS_P1;PMS_P2;Temp;Humidity;BMP_temperature;BMP_pressure;BME280_temperature;BME280_humidity;BME280_pressure;Samples;Min_cycle;Max_cycle;Signal;HPM_P1;HPM_P2
2023/04/08 00:02:20;;;;;;;1.10;1.10;;;10.40;99.90;;;;;;4985374;28;20211;-66
2023/04/08 00:04:46;;;;;;;1.10;1.10;;;10.40;99.90;;;;;;4987735;28;20673;-67
2023/04/08 00:07:13;;;;;;;1.00;1.00;;;10.50;99.90;;;;;;4987407;28;20226;-66
2023/04/08 00:09:40;;;;;;;1.25;1.25;;;10.50;99.90;;;;;;4981364;28;20211;-66
2023/04/08 00:12:07;;;;;;;1.27;1.27;;;10.50;99.90;;;;;;4984896;28;20220;-67
2023/04/08 00:14:37;;;;;;;1.00;1.00;;;10.40;99.90;;;;;;4985259;28;20401;-66
2023/04/08 00:17:04;;;;;;;1.17;1.17;;;10.30;99.90;;;;;;4982470;28;20764;-65
2023/04/08 00:19:31;;;;;;;0.93;0.93;;;10.30;99.90;;;;;;4984056;28;20654;-67
2023/04/08 00:21:58;;;;;;;1.00;1.00;;;10.30;99.90;;;;;;4992646;28;20198;-67
2023/04/08 00:24:25;;;;;;;0.90;0.90;;;10.30;99.90;;;;;;4986084;28;20194;-67
2023/04/08 00:26:52;;;;;;;0.90;0.90;;;10.30;99.90;;;;;;4992161;28;20280;-66
2023/04/08 00:29:18;;;;;;;0.95;0.95;;;10.20;99.90;;;;;;4990878;28;20235;-66
2023/04/08 00:31:46;;;;;;;0.97;0.97;;;10.30;99.90;;;;;;4992356;28;20212;-67
2023/04/08 00:34:13;;;;;;;0.83;0.83;;;10.30;99.90;;;;;;4994088;28;20288;-66
2023/04/08 00:36:40;;;;;;;1.00;1.00;;;10.30;99.90;;;;;;4995991;28;20222;-66
2023/04/08 00:39:07;;;;;;;0.80;0.80;;;10.40;99.90;;;;;;4992920;28;20209;-67
2023/04/08 00:41:34;;;;;;;0.90;0.90;;;10.50;99.90;;;;;;4993490;28;20285;-65
2023/04/08 00:44:01;;;;;;;1.00;1.00;;;10.50;99.90;;;;;;4992883;28;20252;-67
2023/04/08 00:46:28;;;;;;;0.80;0.80;;;10.50;99.90;;;;;;4982451;28;20205;-66
2023/04/08 00:48:57;;;;;;;1.00;1.00;;;10.60;99.90;;;;;;4983434;28;20232;-66
2023/04/08 00:51:23;;;;;;;1.20;1.20;;;10.60;99.90;;;;;;4982767;28;20692;-66
2023/04/08 00:53:50;;;;;;;1.00;1.00;;;10.60;99.90;;;;;;4982058;28;20289;-67
2023/04/08 00:56:17;;;;;;;1.02;1.02;;;10.60;99.90;;;;;;4981808;28;20672;-65
2023/04/08 00:58:44;;;;;;;0.93;0.93;;;10.60;99.90;;;;;;4983759;28;20199;-67
2023/04/08 01:01:14;;;;;;;1.02;1.02;;;10.50;99.90;;;;;;4982834;28;20202;-66
2023/04/08 01:03:48;;;;;;;1.00;1.00;;;10.50;99.90;;;;;;4983494;28;21010;-66
2023/04/08 01:06:23;;;;;;;0.90;0.90;;;10.50;99.90;;;;;;4992217;28;20205;-68
2023/04/08 01:08:52;;;;;;;0.90;0.90;;;10.50;99.90;;;;;;4988129;28;20224;-66
2023/04/08 01:11:20;;;;;;;0.80;0.80;;;10.50;99.90;;;;;;4991332;28;20205;-66
2023/04/08 01:13:49;;;;;;;1.10;1.10;;;10.50;99.90;;;;;;4992099;28;20575;-67
2023/04/08 01:16:17;;;;;;;1.00;1.00;;;10.50;99.90;;;;;;4995696;28;20208;-67
2023/04/08 01:18:46;;;;;;;1.00;1.00;;;10.50;99.90;;;;;;4994788;28;20204;-65
2023/04/08 01:21:14;;;;;;;1.10;1.10;;;10.50;99.90;;;;;;4994877;28;20217;-65
2023/04/08 01:23:53;;;;;;;1.10;1.10;;;10.40;99.90;;;;;;4996515;28;20206;-68
2023/04/08 01:26:24;;;;;;;1.20;1.20;;;10.40;99.90;;;;;;5002707;28;20205;-67
2023/04/08 01:28:53;;;;;;;1.10;1.10;;;10.50;99.90;;;;;;5002142;28;20294;-68
2023/04/08 01:31:22;;;;;;;1.20;1.20;;;10.40;99.90;;;;;;5001281;28;20202;-67
2023/04/08 01:33:51;;;;;;;1.20;1.20;;;10.40;99.90;;;;;;4995162;28;20557;-64
2023/04/08 01:36:18;;;;;;;0.90;0.90;;;10.50;99.90;;;;;;4994686;28;20205;-66
2023/04/08 01:38:46;;;;;;;0.90;0.90;;;10.40;99.90;;;;;;4993789;28;20213;-66
2023/04/08 01:41:13;;;;;;;1.03;1.03;;;10.40;99.90;;;;;;4991871;28;20228;-66
2023/04/08 01:43:43;;;;;;;1.07;1.07;;;10.50;99.90;;;;;;4993067;28;20210;-67
2023/04/08 01:46:11;;;;;;;1.00;1.00;;;10.40;99.90;;;;;;4997535;28;20210;-67
2023/04/08 01:48:39;;;;;;;1.00;1.00;;;10.40;99.90;;;;;;5011529;28;20313;-67
2023/04/08 01:51:06;;;;;;;1.00;1.00;;;10.40;99.90;;;;;;5010834;28;20229;-65
2023/04/08 01:53:33;;;;;;;1.00;1.00;;;10.40;99.90;;;;;;5011520;28;20241;-67
2023/04/08 01:56:04;;;;;;;1.10;1.10;;;10.40;99.90;;;;;;5012820;28;20237;-66
2023/04/08 01:58:37;;;;;;;1.00;1.00;;;10.40;99.90;;;;;;5009256;28;20218;-68
2023/04/08 02:01:09;;;;;;;1.10;1.10;;;10.40;99.90;;;;;;5004746;28;20198;-66
2023/04/08 02:03:37;;;;;;;1.10;1.10;;;10.30;99.90;;;;;;4993123;28;20801;-67
2023/04/08 02:06:05;;;;;;;1.00;1.00;;;10.20;99.90;;;;;;4993195;28;20198;-67
2023/04/08 02:08:34;;;;;;;1.00;1.00;;;10.20;99.90;;;;;;4992205;28;20754;-66
2023/04/08 02:11:01;;;;;;;0.90;0.90;;;10.20;99.90;;;;;;4991207;28;20657;-64
2023/04/08 02:13:29;;;;;;;1.00;1.00;;;10.30;99.90;;;;;;4989298;28;20201;-65
2023/04/08 02:16:03;;;;;;;0.93;0.93;;;10.30;99.90;;;;;;4991886;28;20206;-66
2023/04/08 02:18:32;;;;;;;1.00;1.00;;;10.40;99.90;;;;;;4988745;28;20210;-67
2023/04/08 02:21:06;;;;;;;1.13;1.13;;;10.40;99.90;;;;;;4990640;28;20210;-68
2023/04/08 02:23:35;;;;;;;1.20;1.20;;;10.40;99.90;;;;;;4986322;28;20201;-67
2023/04/08 02:26:04;;;;;;;1.10;1.10;;;10.30;99.90;;;;;;4991564;28;20206;-65
2023/04/08 02:28:32;;;;;;;1.10;1.10;;;10.40;99.90;;;;;;4988729;28;20232;-67
2023/04/08 02:31:01;;;;;;;1.00;1.00;;;10.30;99.90;;;;;;4990253;28;20210;-65
2023/04/08 02:33:28;;;;;;;1.00;1.00;;;10.40;99.90;;;;;;4988445;28;20201;-66
2023/04/08 02:35:57;;;;;;;1.17;1.17;;;10.40;99.90;;;;;;4991015;28;20206;-66
2023/04/08 02:38:28;;;;;;;1.00;1.00;;;10.40;99.90;;;;;;4990431;28;20722;-66
2023/04/08 02:40:55;;;;;;;1.20;1.20;;;10.40;99.90;;;;;;4990208;28;20574;-66
2023/04/08 02:43:25;;;;;;;1.20;1.20;;;10.40;99.90;;;;;;4990868;28;20198;-65
2023/04/08 02:45:52;;;;;;;1.20;1.20;;;10.30;99.90;;;;;;4990209;28;20220;-65
2023/04/08 02:48:19;;;;;;;1.00;1.00;;;10.40;99.90;;;;;;4991985;28;20685;-66
2023/04/08 02:50:46;;;;;;;1.20;1.20;;;10.30;99.90;;;;;;4990899;28;20281;-65
2023/04/08 02:53:14;;;;;;;1.20;1.20;;;10.30;99.90;;;;;;4993510;28;20585;-68
2023/04/08 02:55:41;;;;;;;1.20;1.20;;;10.30;99.90;;;;;;4994781;28;20293;-67
2023/04/08 02:58:08;;;;;;;1.10;1.10;;;10.30;99.90;;;;;;4994658;28;20248;-67
2023/04/08 03:00:36;;;;;;;1.20;1.20;;;10.20;99.90;;;;;;4994779;28;20214;-65
2023/04/08 03:03:02;;;;;;;1.20;1.20;;;10.20;99.90;;;;;;4995522;28;20568;-65
2023/04/08 03:05:29;;;;;;;1.02;1.02;;;10.20;99.90;;;;;;4995739;28;20640;-66
2023/04/08 03:07:56;;;;;;;1.10;1.10;;;10.20;99.90;;;;;;4995229;28;20230;-64
2023/04/08 03:10:25;;;;;;;1.00;1.00;;;10.20;99.90;;;;;;4994441;28;20209;-65
2023/04/08 03:12:52;;;;;;;1.20;1.20;;;10.10;99.90;;;;;;4995231;28;20210;-65
2023/04/08 03:15:19;;;;;;;1.07;1.07;;;10.20;99.90;;;;;;4995285;28;20214;-67
2023/04/08 03:17:46;;;;;;;1.00;1.00;;;10.20;99.90;;;;;;4995196;28;20252;-67
2023/04/08 03:20:13;;;;;;;0.90;0.90;;;10.20;99.90;;;;;;4994183;28;20210;-67
2023/04/08 03:22:39;;;;;;;1.13;1.13;;;10.10;99.90;;;;;;4995119;28;20210;-65
2023/04/08 03:25:07;;;;;;;1.10;1.10;;;10.20;99.90;;;;;;4995442;28;20302;-67
2023/04/08 03:27:35;;;;;;;1.02;1.02;;;10.10;99.90;;;;;;4995367;28;20236;-66
2023/04/08 03:30:02;;;;;;;1.20;1.20;;;10.20;99.90;;;;;;4994320;28;20252;-65
2023/04/08 03:32:29;;;;;;;1.20;1.20;;;10.10;99.90;;;;;;4995159;28;20309;-67
2023/04/08 03:34:56;;;;;;;1.30;1.30;;;10.10;99.90;;;;;;4995018;28;20206;-67
2023/04/08 03:37:22;;;;;;;1.40;1.40;;;10.10;99.90;;;;;;4994930;28;20226;-67
2023/04/08 03:39:49;;;;;;;0.98;0.98;;;10.10;99.90;;;;;;4997281;28;20210;-68
2023/04/08 03:42:16;;;;;;;1.20;1.20;;;10.20;99.90;;;;;;4999176;28;20218;-66
2023/04/08 03:44:45;;;;;;;1.27;1.27;;;10.20;99.90;;;;;;4996325;28;20232;-66
2023/04/08 03:47:11;;;;;;;1.20;1.20;;;10.10;99.90;;;;;;4996042;28;20232;-66
2023/04/08 03:49:38;;;;;;;1.30;1.30;;;10.00;99.90;;;;;;4995445;28;20313;-67
2023/04/08 03:52:05;;;;;;;1.30;1.30;;;10.00;99.90;;;;;;4995457;28;20218;-66
2023/04/08 03:54:32;;;;;;;1.30;1.30;;;9.90;99.90;;;;;;4995684;28;20229;-66
2023/04/08 03:56:59;;;;;;;1.30;1.30;;;9.90;99.90;;;;;;4994590;28;20639;-67
2023/04/08 03:59:26;;;;;;;1.10;1.10;;;9.90;99.90;;;;;;4994005;28;20208;-67
2023/04/08 04:01:55;;;;;;;1.33;1.33;;;9.90;99.90;;;;;;4994395;28;20206;-65
2023/04/08 04:04:22;;;;;;;1.23;1.20;;;9.90;99.90;;;;;;4993162;28;20245;-66
2023/04/08 04:06:48;;;;;;;1.17;1.17;;;9.80;99.90;;;;;;4994995;28;20291;-67
2023/04/08 04:09:16;;;;;;;1.10;1.10;;;9.90;99.90;;;;;;4993867;28;20226;-66
2023/04/08 04:11:43;;;;;;;1.35;1.35;;;9.90;99.90;;;;;;4994800;28;20257;-65
2023/04/08 04:14:09;;;;;;;1.20;1.20;;;9.90;99.90;;;;;;4995298;28;20677;-66
2023/04/08 04:16:36;;;;;;;1.20;1.20;;;9.90;99.90;;;;;;4994431;28;20222;-67
2023/04/08 04:19:05;;;;;;;1.20;1.20;;;9.90;99.90;;;;;;4994159;28;20212;-65
2023/04/08 04:21:32;;;;;;;1.33;1.30;;;10.00;99.90;;;;;;4994370;28;20681;-65
2023/04/08 04:23:59;;;;;;;1.17;1.17;;;10.00;99.90;;;;;;4993660;28;20210;-65
2023/04/08 04:26:25;;;;;;;1.30;1.30;;;10.00;99.90;;;;;;4985250;28;20210;-66
2023/04/08 04:28:52;;;;;;;1.20;1.20;;;10.10;99.90;;;;;;4988784;28;20222;-66
2023/04/08 04:31:20;;;;;;;1.00;1.00;;;10.10;99.90;;;;;;4973086;28;20685;-65
2023/04/08 04:33:47;;;;;;;1.10;1.10;;;10.10;99.90;;;;;;4973556;28;20206;-66
2023/04/08 04:36:15;;;;;;;1.10;1.10;;;10.10;99.90;;;;;;4973660;28;20207;-66
2023/04/08 04:38:43;;;;;;;1.23;1.23;;;10.10;99.90;;;;;;4984861;28;20220;-66
2023/04/08 04:41:10;;;;;;;1.10;1.10;;;10.10;99.90;;;;;;4987850;28;20206;-65
2023/04/08 04:43:37;;;;;;;1.15;1.15;;;10.10;99.90;;;;;;4993124;28;20214;-66
2023/04/08 04:46:07;;;;;;;1.30;1.30;;;10.10;99.90;;;;;;4993047;28;20585;-66
2023/04/08 04:48:34;;;;;;;1.27;1.27;;;10.20;99.90;;;;;;4992932;28;20240;-65
2023/04/08 04:51:02;;;;;;;1.10;1.10;;;10.10;99.90;;;;;;4992780;28;20806;-64
2023/04/08 04:53:31;;;;;;;1.33;1.33;;;10.10;99.90;;;;;;4994569;28;20568;-65
2023/04/08 04:56:00;;;;;;;1.27;1.27;;;10.10;99.90;;;;;;4995023;28;20213;-66
2023/04/08 04:58:26;;;;;;;1.40;1.30;;;10.10;99.90;;;;;;4994103;28;20257;-66
2023/04/08 05:00:53;;;;;;;1.30;1.30;;;10.10;99.90;;;;;;4993991;28;20206;-64
2023/04/08 05:03:20;;;;;;;1.30;1.30;;;10.10;99.90;;;;;;4994161;28;20683;-67
2023/04/08 05:05:51;;;;;;;1.20;1.20;;;10.00;99.90;;;;;;5006825;28;20214;-65
2023/04/08 05:08:18;;;;;;;1.23;1.23;;;9.90;99.90;;;;;;5004931;28;20254;-67
2023/04/08 05:10:48;;;;;;;1.23;1.23;;;9.90;99.90;;;;;;4993966;28;20270;-66
2023/04/08 05:13:16;;;;;;;1.23;1.23;;;9.90;99.90;;;;;;4994304;28;20230;-67
2023/04/08 05:15:44;;;;;;;1.30;1.30;;;9.90;99.90;;;;;;4988070;28;20705;-66
2023/04/08 05:18:11;;;;;;;1.30;1.30;;;10.00;99.90;;;;;;4974605;28;20226;-68
2023/04/08 05:20:38;;;;;;;1.60;1.50;;;10.00;99.90;;;;;;4972879;28;20218;-63
2023/04/08 05:23:06;;;;;;;1.50;1.50;;;10.10;99.90;;;;;;4972925;28;20674;-66
2023/04/08 05:25:32;;;;;;;1.60;1.60;;;10.10;99.90;;;;;;4973129;28;20210;-66
2023/04/08 05:28:01;;;;;;;1.33;1.33;;;10.10;99.90;;;;;;4972703;28;20226;-65
2023/04/08 05:30:28;;;;;;;1.47;1.47;;;10.10;99.90;;;;;;4971973;28;20233;-65
2023/04/08 05:32:54;;;;;;;1.23;1.23;;;10.00;99.90;;;;;;4981462;28;20202;-63
2023/04/08 05:35:21;;;;;;;1.60;1.50;;;10.00;99.90;;;;;;4992065;28;20691;-66
2023/04/08 05:37:48;;;;;;;1.30;1.30;;;10.10;99.90;;;;;;4991597;28;20221;-64
2023/04/08 05:40:15;;;;;;;1.43;1.43;;;10.10;99.90;;;;;;4991437;28;20206;-65
2023/04/08 05:42:42;;;;;;;1.40;1.40;;;10.00;99.90;;;;;;4991869;28;20194;-65
2023/04/08 05:45:11;;;;;;;1.33;1.33;;;10.00;99.90;;;;;;4991481;28;20647;-64
2023/04/08 05:47:38;;;;;;;1.40;1.40;;;10.10;99.90;;;;;;4990861;28;20637;-67
2023/04/08 05:50:05;;;;;;;1.30;1.30;;;10.10;99.90;;;;;;4993497;28;20224;-64
2023/04/08 05:52:32;;;;;;;1.30;1.30;;;10.00;99.90;;;;;;4996470;28;20198;-66
2023/04/08 05:54:59;;;;;;;1.50;1.50;;;10.10;99.90;;;;;;4996110;28;20202;-66
2023/04/08 05:57:25;;;;;;;1.20;1.20;;;10.10;99.90;;;;;;4998272;28;20221;-64
2023/04/08 05:59:52;;;;;;;1.80;1.70;;;10.10;99.90;;;;;;4994934;28;20202;-66
2023/04/08 06:02:21;;;;;;;1.60;1.50;;;10.30;99.90;;;;;;4993519;28;20205;-64
2023/04/08 06:04:47;;;;;;;1.30;1.30;;;10.30;99.90;;;;;;4993830;28;20198;-64
2023/04/08 06:07:14;;;;;;;1.20;1.20;;;10.30;99.90;;;;;;4993036;28;20233;-64
2023/04/08 06:09:41;;;;;;;1.30;1.30;;;10.30;99.90;;;;;;4992467;28;20230;-64
2023/04/08 06:12:08;;;;;;;1.67;1.60;;;10.30;99.90;;;;;;4992205;28;20758;-64
2023/04/08 06:14:35;;;;;;;1.47;1.47;;;10.40;99.90;;;;;;4992095;28;20209;-63
2023/04/08 06:17:01;;;;;;;1.40;1.40;;;10.40;99.90;;;;;;4992180;28;20230;-65
2023/04/08 06:19:30;;;;;;;1.30;1.30;;;10.40;99.90;;;;;;4991839;28;20603;-64
2023/04/08 06:21:57;;;;;;;1.40;1.30;;;10.40;99.90;;;;;;4991809;28;20202;-64
2023/04/08 06:24:26;;;;;;;1.33;1.33;;;10.50;99.90;;;;;;4991808;28;20260;-64
2023/04/08 06:26:53;;;;;;;1.50;1.50;;;10.50;99.90;;;;;;4992321;28;20300;-63
2023/04/08 06:29:20;;;;;;;1.23;1.23;;;10.50;99.90;;;;;;4994960;28;20239;-65
2023/04/08 06:31:46;;;;;;;1.60;1.50;;;10.60;99.90;;;;;;4996062;28;20257;-64
2023/04/08 06:34:13;;;;;;;1.27;1.27;;;10.60;99.90;;;;;;4996099;28;20206;-63
2023/04/08 06:36:42;;;;;;;1.20;1.20;;;10.60;99.90;;;;;;4999297;28;20831;-64
2023/04/08 06:39:09;;;;;;;1.47;1.47;;;10.60;99.90;;;;;;4980239;28;20205;-64
2023/04/08 06:41:36;;;;;;;1.50;1.50;;;10.70;99.90;;;;;;4990095;28;20214;-63
2023/04/08 06:44:02;;;;;;;1.50;1.40;;;10.70;99.90;;;;;;4995009;28;20210;-63
2023/04/08 06:46:29;;;;;;;1.30;1.30;;;10.70;99.90;;;;;;5001475;28;20305;-63
2023/04/08 06:48:57;;;;;;;1.77;1.70;;;10.80;99.90;;;;;;4996093;28;20686;-63
2023/04/08 06:51:26;;;;;;;1.70;1.60;;;10.70;99.90;;;;;;4995310;28;20209;-64
2023/04/08 06:53:55;;;;;;;1.63;1.60;;;10.60;99.90;;;;;;4998377;28;20204;-64
2023/04/08 06:56:21;;;;;;;1.50;1.50;;;10.60;99.90;;;;;;5002078;28;20240;-64
2023/04/08 06:58:49;;;;;;;1.70;1.60;;;10.60;99.90;;;;;;4995531;28;20285;-62
2023/04/08 07:01:16;;;;;;;1.90;1.80;;;10.60;99.90;;;;;;4995055;28;20695;-63
2023/04/08 07:03:43;;;;;;;1.80;1.70;;;10.60;99.90;;;;;;4995650;28;20245;-63
2023/04/08 07:06:10;;;;;;;1.50;1.50;;;10.80;99.90;;;;;;4992100;28;20220;-64
2023/04/08 07:08:37;;;;;;;1.40;1.40;;;10.70;99.90;;;;;;4989897;28;20244;-62
2023/04/08 07:11:05;;;;;;;1.73;1.63;;;10.80;99.90;;;;;;4984971;28;20661;-64
2023/04/08 07:13:32;;;;;;;1.80;1.70;;;10.70;99.90;;;;;;4994062;28;20205;-65
2023/04/08 07:16:00;;;;;;;1.70;1.60;;;10.70;99.90;;;;;;4991114;28;20222;-65
2023/04/08 07:18:27;;;;;;;1.93;1.83;;;10.70;99.90;;;;;;4987518;28;20619;-65
2023/04/08 07:20:54;;;;;;;2.00;1.90;;;10.70;99.90;;;;;;4987110;28;20198;-65
2023/04/08 07:23:21;;;;;;;2.20;2.10;;;10.70;99.90;;;;;;4991389;28;20241;-64
2023/04/08 07:25:48;;;;;;;2.10;2.00;;;10.70;99.90;;;;;;4990689;28;20206;-63
2023/04/08 07:28:16;;;;;;;1.80;1.70;;;10.70;99.90;;;;;;4987694;28;20222;-65
2023/04/08 07:30:43;;;;;;;2.27;2.17;;;10.70;99.90;;;;;;4994936;28;20218;-63
2023/04/08 07:33:10;;;;;;;2.37;2.27;;;10.70;99.90;;;;;;4987103;28;20206;-63
2023/04/08 07:35:37;;;;;;;3.00;2.80;;;10.60;99.90;;;;;;4988603;28;20198;-64
2023/04/08 07:38:08;;;;;;;2.57;2.47;;;10.60;99.90;;;;;;4989332;28;20248;-62
2023/04/08 07:40:35;;;;;;;2.33;2.23;;;10.60;99.90;;;;;;4985949;28;20203;-64
2023/04/08 07:43:01;;;;;;;2.40;2.30;;;10.70;99.90;;;;;;4990025;28;20206;-64
2023/04/08 07:45:30;;;;;;;2.23;2.13;;;10.70;99.90;;;;;;4988648;28;20217;-63
2023/04/08 07:47:56;;;;;;;2.10;2.00;;;10.70;99.90;;;;;;4990431;28;20268;-63
2023/04/08 07:50:23;;;;;;;2.88;2.67;;;10.80;99.90;;;;;;4986658;28;20229;-63
2023/04/08 07:52:52;;;;;;;2.75;2.65;;;10.80;99.90;;;;;;4989626;28;20570;-63
2023/04/08 07:55:19;;;;;;;2.70;2.50;;;10.80;99.90;;;;;;4988227;28;20202;-63
2023/04/08 07:57:46;;;;;;;3.37;3.17;;;10.80;99.90;;;;;;4990223;28;20222;-64
2023/04/08 08:00:19;;;;;;;3.73;3.53;;;10.80;99.90;;;;;;4991129;28;20224;-62
2023/04/08 08:02:48;;;;;;;3.40;3.20;;;10.80;99.90;;;;;;4989953;28;20198;-63
2023/04/08 08:05:14;;;;;;;4.07;3.87;;;10.70;99.90;;;;;;4988174;28;20202;-64
2023/04/08 08:07:41;;;;;;;3.97;3.77;;;10.70;99.90;;;;;;4986846;28;20234;-63
2023/04/08 08:10:09;;;;;;;4.22;4.03;;;10.70;99.90;;;;;;4987430;28;20241;-62
2023/04/08 08:12:36;;;;;;;5.20;4.90;;;10.70;99.90;;;;;;4991509;28;20201;-62
2023/04/08 08:15:03;;;;;;;4.50;4.25;;;10.70;99.90;;;;;;4992869;28;20674;-66
2023/04/08 08:17:32;;;;;;;3.80;3.60;;;10.70;99.90;;;;;;4988078;28;20308;-65
2023/04/08 08:20:00;;;;;;;3.10;3.00;;;10.70;99.90;;;;;;4985780;28;20673;-62
2023/04/08 08:22:27;;;;;;;2.90;2.80;;;10.80;99.90;;;;;;4990529;28;20564;-65
2023/04/08 08:24:58;;;;;;;2.80;2.70;;;10.70;99.90;;;;;;4989192;28;20233;-65
2023/04/08 08:27:25;;;;;;;2.77;2.67;;;10.80;99.90;;;;;;4986592;28;20292;-65
2023/04/08 08:29:52;;;;;;;2.90;2.75;;;10.80;99.90;;;;;;4988230;28;20241;-65
2023/04/08 08:32:19;;;;;;;3.23;3.07;;;10.90;99.90;;;;;;4993376;28;20212;-64
2023/04/08 08:34:46;;;;;;;3.57;3.37;;;11.00;99.90;;;;;;4987873;28;20666;-65
2023/04/08 08:37:14;;;;;;;3.57;3.37;;;10.90;99.90;;;;;;4987037;28;20227;-65
2023/04/08 08:39:41;;;;;;;3.20;3.00;;;11.00;99.90;;;;;;4987202;28;20292;-65
2023/04/08 08:42:19;;;;;;;3.03;2.93;;;10.90;99.90;;;;;;4992703;28;20220;-64
2023/04/08 08:44:46;;;;;;;2.80;2.70;;;11.00;99.90;;;;;;4993564;28;20213;-66
2023/04/08 08:47:12;;;;;;;2.90;2.80;;;11.10;99.90;;;;;;4994640;28;20230;-66
2023/04/08 08:49:40;;;;;;;2.97;2.87;;;11.10;99.90;;;;;;4985325;28;20225;-66
2023/04/08 08:52:07;;;;;;;2.53;2.43;;;11.10;99.90;;;;;;4991139;28;20221;-64
2023/04/08 08:54:35;;;;;;;3.30;3.10;;;11.20;99.90;;;;;;4988554;28;20206;-64
2023/04/08 08:57:02;;;;;;;3.30;3.10;;;11.40;99.90;;;;;;4997455;28;20233;-63
2023/04/08 08:59:29;;;;;;;2.97;2.87;;;11.40;99.90;;;;;;4998701;28;20293;-64
2023/04/08 09:01:56;;;;;;;2.70;2.60;;;11.40;99.90;;;;;;4995026;28;20212;-64
2023/04/08 09:04:22;;;;;;;2.90;2.80;;;11.40;99.90;;;;;;4986024;28;20212;-64
2023/04/08 09:07:04;;;;;;;3.00;2.80;;;11.40;99.90;;;;;;5003009;28;20224;-64
2023/04/08 09:09:50;;;;;;;2.93;2.73;;;11.30;99.90;;;;;;4994049;28;20630;-64
2023/04/08 09:12:17;;;;;;;2.97;2.83;;;11.50;99.90;;;;;;4992123;28;20201;-63
2023/04/08 09:14:43;;;;;;;3.10;3.00;;;11.40;99.90;;;;;;4993233;28;20213;-64
2023/04/08 09:17:10;;;;;;;2.73;2.63;;;11.40;99.90;;;;;;4993466;28;20238;-65
2023/04/08 09:19:37;;;;;;;2.67;2.47;;;11.50;99.90;;;;;;4992598;28;20209;-62
2023/04/08 09:22:06;;;;;;;2.30;2.20;;;11.90;99.90;;;;;;4992664;28;20206;-63
2023/04/08 09:24:33;;;;;;;2.63;2.53;;;11.90;99.90;;;;;;4992939;28;20208;-64
2023/04/08 09:27:02;;;;;;;2.33;2.23;;;12.00;99.90;;;;;;4992720;28;20232;-62
2023/04/08 09:29:29;;;;;;;1.73;1.67;;;12.20;99.90;;;;;;4992268;28;20228;-62
2023/04/08 09:31:57;;;;;;;1.93;1.83;;;12.50;99.90;;;;;;4993448;28;20225;-63
2023/04/08 09:34:26;;;;;;;1.67;1.67;;;12.50;99.90;;;;;;4992537;28;20210;-63
2023/04/08 09:36:53;;;;;;;1.87;1.77;;;12.70;99.90;;;;;;4993642;28;20226;-63
2023/04/08 09:39:20;;;;;;;2.03;1.83;;;12.90;99.90;;;;;;4992702;28;20210;-64
2023/04/08 09:41:49;;;;;;;1.90;1.80;;;12.90;99.90;;;;;;4993257;28;20285;-64
2023/04/08 09:44:19;;;;;;;1.90;1.80;;;13.00;99.90;;;;;;4993104;28;20281;-63
2023/04/08 09:46:56;;;;;;;1.70;1.60;;;13.00;99.90;;;;;;4993286;28;20865;-63
2023/04/08 09:49:27;;;;;;;1.60;1.60;;;12.70;99.90;;;;;;4993322;28;20201;-64
2023/04/08 09:51:59;;;;;;;1.40;1.40;;;12.60;99.90;;;;;;4993552;28;20234;-64
2023/04/08 09:54:35;;;;;;;1.77;1.73;;;12.60;99.90;;;;;;4992987;28;20222;-64
2023/04/08 09:57:16;;;;;;;1.57;1.53;;;12.60;99.90;;;;;;4992659;28;20218;-64
2023/04/08 09:59:52;;;;;;;1.50;1.50;;;12.40;99.90;;;;;;4992355;28;20684;-64
2023/04/08 10:02:30;;;;;;;2.47;2.37;;;12.40;99.90;;;;;;4991503;28;20289;-64
2023/04/08 10:05:00;;;;;;;2.07;1.97;;;12.30;99.90;;;;;;4992786;28;20210;-64
2023/04/08 10:07:26;;;;;;;2.20;2.10;;;12.30;99.90;;;;;;4991660;28;20226;-64
2023/04/08 10:09:53;;;;;;;2.50;2.40;;;12.30;99.90;;;;;;4979809;28;20207;-63
2023/04/08 10:12:20;;;;;;;2.20;2.10;;;12.30;99.90;;;;;;4982306;28;20207;-64
2023/04/08 10:15:21;;;;;;;2.60;2.50;;;12.30;99.90;;;;;;4980956;28;20202;-65
2023/04/08 10:17:49;;;;;;;2.50;2.40;;;12.30;99.90;;;;;;4980632;28;20228;-62
2023/04/08 10:20:42;;;;;;;2.37;2.27;;;12.40;99.90;;;;;;4986970;28;20195;-64
2023/04/08 10:23:12;;;;;;;2.40;2.30;;;12.70;99.90;;;;;;4989900;28;20680;-64
2023/04/08 10:25:40;;;;;;;2.60;2.50;;;12.90;99.90;;;;;;4990232;28;20198;-63
2023/04/08 10:28:25;;;;;;;2.30;2.20;;;13.20;99.90;;;;;;4992504;28;20233;-63
2023/04/08 10:30:52;;;;;;;2.40;2.30;;;13.30;99.90;;;;;;4989186;28;20218;-63
2023/04/08 10:33:24;;;;;;;2.00;1.90;;;13.30;99.90;;;;;;4985176;28;20213;-63
2023/04/08 10:35:54;;;;;;;2.10;2.00;;;13.40;99.90;;;;;;4985269;28;20210;-62
2023/04/08 10:38:22;;;;;;;2.10;2.00;;;13.60;99.90;;;;;;4989480;28;20682;-64
2023/04/08 10:40:50;;;;;;;2.10;2.00;;;13.60;99.90;;;;;;4988718;28;20202;-63
2023/04/08 10:43:17;;;;;;;2.17;2.07;;;13.70;99.90;;;;;;4987002;28;20198;-64
2023/04/08 10:45:45;;;;;;;2.13;2.03;;;13.80;99.90;;;;;;4989634;28;20202;-64
2023/04/08 10:48:17;;;;;;;1.90;1.80;;;13.80;99.90;;;;;;4990331;28;20637;-65
2023/04/08 10:50:52;;;;;;;1.90;1.80;;;13.60;99.90;;;;;;4988714;28;20218;-63
2023/04/08 10:53:23;;;;;;;2.00;1.90;;;13.90;99.90;;;;;;4989624;28;20205;-62
2023/04/08 10:55:50;;;;;;;1.80;1.70;;;14.10;99.90;;;;;;4989865;28;20206;-63
2023/04/08 10:58:17;;;;;;;2.20;2.10;;;14.40;99.90;;;;;;4989360;28;20309;-63
2023/04/08 11:00:44;;;;;;;2.20;2.10;;;14.50;99.90;;;;;;4988958;28;20221;-64
2023/04/08 11:03:11;;;;;;;2.40;2.30;;;14.30;99.90;;;;;;4989918;28;20198;-64
2023/04/08 11:05:38;;;;;;;2.20;2.10;;;13.80;99.90;;;;;;4989938;28;20217;-63
2023/04/08 11:08:07;;;;;;;2.50;2.30;;;13.70;99.90;;;;;;4989767;28;20313;-63
2023/04/08 11:10:37;;;;;;;2.27;2.17;;;13.60;99.90;;;;;;4989659;28;20233;-64
2023/04/08 11:13:07;;;;;;;2.72;2.53;;;13.60;99.90;;;;;;4992786;28;20214;-63
2023/04/08 11:15:35;;;;;;;2.05;1.95;;;13.50;99.90;;;;;;4994200;28;20229;-63
2023/04/08 11:18:03;;;;;;;2.20;2.10;;;13.50;99.90;;;;;;4993382;28;20234;-64
2023/04/08 11:20:30;;;;;;;2.10;2.00;;;13.50;99.90;;;;;;5014338;28;20186;-65
2023/04/08 11:22:57;;;;;;;2.00;1.90;;;13.50;99.90;;;;;;5016527;28;20250;-64
2023/04/08 11:25:26;;;;;;;2.30;2.10;;;13.70;99.90;;;;;;5003648;28;20832;-65
2023/04/08 11:27:53;;;;;;;2.20;2.10;;;13.80;99.90;;;;;;4999169;28;20261;-65
2023/04/08 11:30:21;;;;;;;2.08;1.98;;;13.90;99.90;;;;;;4988422;28;20202;-63
2023/04/08 11:32:48;;;;;;;2.50;2.40;;;13.90;99.90;;;;;;4999393;28;20202;-65
2023/04/08 11:35:17;;;;;;;2.13;2.03;;;14.00;99.90;;;;;;4997319;28;20220;-64
2023/04/08 11:37:46;;;;;;;2.60;2.50;;;13.90;99.90;;;;;;5013618;28;20258;-64
2023/04/08 11:40:13;;;;;;;2.20;2.10;;;13.90;99.90;;;;;;4995741;28;20210;-64
2023/04/08 11:42:41;;;;;;;2.20;2.10;;;13.80;99.90;;;;;;5002171;28;20213;-63
2023/04/08 11:45:12;;;;;;;2.20;2.10;;;13.80;99.90;;;;;;5012204;28;20213;-63
2023/04/08 11:47:40;;;;;;;1.80;1.70;;;13.80;99.90;;;;;;5002357;28;20324;-64
2023/04/08 11:50:08;;;;;;;2.08;1.98;;;14.20;99.90;;;;;;4996899;28;20580;-63
2023/04/08 11:52:45;;;;;;;2.00;1.90;;;14.30;99.90;;;;;;5003906;28;20230;-64
2023/04/08 11:55:13;;;;;;;2.00;1.90;;;14.50;99.90;;;;;;5003358;28;20198;-65
2023/04/08 11:57:41;;;;;;;1.63;1.63;;;14.70;99.90;;;;;;4998164;28;20270;-64
2023/04/08 12:00:09;;;;;;;1.60;1.60;;;14.90;99.90;;;;;;4999289;28;20202;-65
2023/04/08 12:02:35;;;;;;;1.93;1.83;;;15.00;99.90;;;;;;4995701;28;20202;-64
2023/04/08 12:05:02;;;;;;;1.63;1.60;;;14.90;99.90;;;;;;4994121;28;20293;-62
2023/04/08 12:07:29;;;;;;;2.03;1.92;;;14.80;99.90;;;;;;4995989;28;20341;-64
2023/04/08 12:09:56;;;;;;;2.03;1.93;;;14.90;99.90;;;;;;5001751;28;20202;-64
2023/04/08 12:12:23;;;;;;;1.80;1.70;;;14.80;99.90;;;;;;4993025;28;20226;-62
2023/04/08 12:14:51;;;;;;;1.80;1.70;;;14.80;99.90;;;;;;4982538;28;20653;-64
2023/04/08 12:17:18;;;;;;;1.35;1.35;;;14.70;99.90;;;;;;4983157;28;20429;-63
2023/04/08 12:19:45;;;;;;;1.90;1.80;;;14.80;99.90;;;;;;4981169;28;20210;-63
2023/04/08 12:22:12;;;;;;;2.00;1.90;;;15.00;99.90;;;;;;4981569;28;20576;-62
2023/04/08 12:24:39;;;;;;;1.98;1.88;;;15.00;99.90;;;;;;4982555;28;20254;-64
2023/04/08 12:27:06;;;;;;;2.23;1.70;;;15.10;99.90;;;;;;4981354;28;20272;-63
2023/04/08 12:29:33;;;;;;;1.50;1.50;;;15.20;99.90;;;;;;4980636;28;20210;-63
2023/04/08 12:32:03;;;;;;;2.10;2.00;;;15.30;99.90;;;;;;4982128;28;20601;-64
2023/04/08 12:34:30;;;;;;;1.70;1.70;;;15.10;99.90;;;;;;4989306;28;20206;-62
2023/04/08 12:36:57;;;;;;;2.00;1.90;;;15.00;99.90;;;;;;4988910;28;20221;-62
2023/04/08 12:39:24;;;;;;;2.00;1.90;;;14.70;99.90;;;;;;4990213;28;20322;-63
2023/04/08 12:41:51;;;;;;;1.97;1.87;;;14.70;99.90;;;;;;4991773;28;20202;-62
2023/04/08 12:44:18;;;;;;;1.90;1.80;;;14.70;99.90;;;;;;4993232;28;20244;-63
2023/04/08 12:46:45;;;;;;;1.80;1.70;;;14.50;99.90;;;;;;4987690;28;20229;-62
2023/04/08 12:49:13;;;;;;;1.90;1.80;;;14.50;99.90;;;;;;4989007;28;20945;-62
2023/04/08 12:51:40;;;;;;;1.93;1.83;;;14.40;99.90;;;;;;4984845;28;20316;-62
2023/04/08 12:54:07;;;;;;;1.70;1.60;;;14.40;99.90;;;;;;4989780;28;20206;-64